sensor_id;sensor_type;location;lat;lon;timestamp;temperature;humidity
50989;DHT22;37008;52.210;21.112;2022-09-17T00:00:31;8.70;99.90
50989;DHT22;37008;52.210;21.112;2022-09-17T00:02:56;8.70;99.90
50989;DHT22;37008;52.210;21.112;2022-09-17T00:05:22;8.70;99.90
50989;DHT22;37008;52.210;21.112;2022-09-17T00:07:51;8.80;99.90
50989;DHT22;37008;52.210;21.112;2022-09-17T00:10:18;8.80;99.90
50989;DHT22;37008;52.210;21.112;2022-09-17T00:12:45;8.90;99.90
50989;DHT22;37008;52.210;21.112;2022-09-17T00:15:10;9.00;99.90
50989;DHT22;37008;52.210;21.112;2022-09-17T00:17:36;9.00;99.90
50989;DHT22;37008;52.210;21.112;2022-09-17T00:20:03;9.10;99.90
50989;DHT22;37008;52.210;21.112;2022-09-17T00:22:29;9.10;99.90
50989;DHT22;37008;52.210;21.112;2022-09-17T00:24:55;9.20;99.90
50989;DHT22;37008;52.210;21.112;2022-09-17T00:27:20;9.20;99.90
50989;DHT22;37008;52.210;21.112;2022-09-17T00:29:47;9.10;99.90
50989;DHT22;37008;52.210;21.112;2022-09-17T00:32:15;9.20;99.90
50989;DHT22;37008;52.210;21.112;2022-09-17T00:34:42;9.10;99.90
50989;DHT22;37008;52.210;21.112;2022-09-17T00:37:08;9.10;99.90
50989;DHT22;37008;52.210;21.112;2022-09-17T00:39:33;9.00;99.90
50989;DHT22;37008;52.210;21.112;2022-09-17T00:42:02;9.00;99.90
50989;DHT22;37008;52.210;21.112;2022-09-17T00:47:07;8.90;99.90
50989;DHT22;37008;52.210;21.112;2022-09-17T00:49:36;8.80;99.90
50989;DHT22;37008;52.210;21.112;2022-09-17T00:52:06;8.80;99.90
50989;DHT22;37008;52.210;21.112;2022-09-17T00:54:33;8.70;99.90
50989;DHT22;37008;52.210;21.112;2022-09-17T00:56:59;8.70;99.90
50989;DHT22;37008;52.210;21.112;2022-09-17T00:59:25;8.60;99.90
50989;DHT22;37008;52.210;21.112;2022-09-17T01:01:51;8.50;99.90
50989;DHT22;37008;52.210;21.112;2022-09-17T01:04:19;8.60;99.90
50989;DHT22;37008;52.210;21.112;2022-09-17T01:07:06;8.70;99.90
50989;DHT22;37008;52.210;21.112;2022-09-17T01:32:13;8.50;99.90
50989;DHT22;37008;52.210;21.112;2022-09-17T01:35:23;8.50;99.90
50989;DHT22;37008;52.210;21.112;2022-09-17T01:38:13;8.50;99.90
50989;DHT22;37008;52.210;21.112;2022-09-17T01:45:51;8.40;99.90
50989;DHT22;37008;52.210;21.112;2022-09-17T01:48:19;8.40;99.90
50989;DHT22;37008;52.210;21.112;2022-09-17T01:50:52;8.30;99.90
50989;DHT22;37008;52.210;21.112;2022-09-17T01:53:23;8.20;99.90
50989;DHT22;37008;52.210;21.112;2022-09-17T01:55:50;8.20;99.90
50989;DHT22;37008;52.210;21.112;2022-09-17T01:58:22;8.10;99.90
50989;DHT22;37008;52.210;21.112;2022-09-17T02:00:57;8.00;99.90
50989;DHT22;37008;52.210;21.112;2022-09-17T02:06:15;8.00;99.90
50989;DHT22;37008;52.210;21.112;2022-09-17T02:08:50;7.90;99.90
50989;DHT22;37008;52.210;21.112;2022-09-17T02:11:20;7.90;99.90
50989;DHT22;37008;52.210;21.112;2022-09-17T02:13:53;7.80;99.90
50989;DHT22;37008;52.210;21.112;2022-09-17T02:16:28;7.80;99.90
50989;DHT22;37008;52.210;21.112;2022-09-17T02:19:09;7.80;99.90
50989;DHT22;37008;52.210;21.112;2022-09-17T02:24:23;7.80;99.90
50989;DHT22;37008;52.210;21.112;2022-09-17T02:26:57;7.80;99.90
50989;DHT22;37008;52.210;21.112;2022-09-17T02:29:36;7.70;99.90
50989;DHT22;37008;52.210;21.112;2022-09-17T02:32:02;7.70;99.90
50989;DHT22;37008;52.210;21.112;2022-09-17T02:34:28;7.60;99.90
50989;DHT22;37008;52.210;21.112;2022-09-17T02:36:57;7.60;99.90
50989;DHT22;37008;52.210;21.112;2022-09-17T02:39:24;7.50;99.90
50989;DHT22;37008;52.210;21.112;2022-09-17T02:44:52;7.50;99.90
50989;DHT22;37008;52.210;21.112;2022-09-17T02:55:48;7.30;99.90
50989;DHT22;37008;52.210;21.112;2022-09-17T03:00:41;7.30;99.90
50989;DHT22;37008;52.210;21.112;2022-09-17T03:03:25;7.30;99.90
50989;DHT22;37008;52.210;21.112;2022-09-17T03:05:53;7.30;99.90
50989;DHT22;37008;52.210;21.112;2022-09-17T03:08:19;7.20;99.90
50989;DHT22;37008;52.210;21.112;2022-09-17T03:10:52;7.20;99.90
50989;DHT22;37008;52.210;21.112;2022-09-17T03:13:17;7.20;99.90
50989;DHT22;37008;52.210;21.112;2022-09-17T03:15:43;7.20;99.90
50989;DHT22;37008;52.210;21.112;2022-09-17T03:18:09;7.20;99.90
50989;DHT22;37008;52.210;21.112;2022-09-17T03:20:34;7.30;99.90
50989;DHT22;37008;52.210;21.112;2022-09-17T03:23:00;7.20;99.90
50989;DHT22;37008;52.210;21.112;2022-09-17T03:25:25;7.20;99.90
50989;DHT22;37008;52.210;21.112;2022-09-17T03:27:51;7.30;99.90
50989;DHT22;37008;52.210;21.112;2022-09-17T03:30:17;7.20;99.90
50989;DHT22;37008;52.210;21.112;2022-09-17T03:32:43;7.20;99.90
50989;DHT22;37008;52.210;21.112;2022-09-17T03:35:08;7.20;99.90
50989;DHT22;37008;52.210;21.112;2022-09-17T03:37:34;7.20;99.90
50989;DHT22;37008;52.210;21.112;2022-09-17T03:40:00;7.20;99.90
50989;DHT22;37008;52.210;21.112;2022-09-17T03:42:25;7.20;99.90
50989;DHT22;37008;52.210;21.112;2022-09-17T03:44:51;7.10;99.90
50989;DHT22;37008;52.210;21.112;2022-09-17T03:47:16;7.20;99.90
50989;DHT22;37008;52.210;21.112;2022-09-17T03:49:42;7.20;99.90
50989;DHT22;37008;52.210;21.112;2022-09-17T03:52:08;7.20;99.90
50989;DHT22;37008;52.210;21.112;2022-09-17T03:54:33;7.20;99.90
50989;DHT22;37008;52.210;21.112;2022-09-17T03:56:59;7.10;99.90
50989;DHT22;37008;52.210;21.112;2022-09-17T03:59:24;7.20;99.90
50989;DHT22;37008;52.210;21.112;2022-09-17T04:01:51;7.10;99.90
50989;DHT22;37008;52.210;21.112;2022-09-17T04:04:17;7.10;99.90
50989;DHT22;37008;52.210;21.112;2022-09-17T04:06:42;7.00;99.90
50989;DHT22;37008;52.210;21.112;2022-09-17T04:09:08;7.00;99.90
50989;DHT22;37008;52.210;21.112;2022-09-17T04:11:33;7.10;99.90
50989;DHT22;37008;52.210;21.112;2022-09-17T04:14:00;6.90;99.90
50989;DHT22;37008;52.210;21.112;2022-09-17T04:16:26;7.00;99.90
50989;DHT22;37008;52.210;21.112;2022-09-17T04:18:51;7.00;99.90
50989;DHT22;37008;52.210;21.112;2022-09-17T04:21:17;7.00;99.90
50989;DHT22;37008;52.210;21.112;2022-09-17T04:23:42;7.00;99.90
50989;DHT22;37008;52.210;21.112;2022-09-17T04:26:08;7.10;99.90
50989;DHT22;37008;52.210;21.112;2022-09-17T04:28:34;7.00;99.90
50989;DHT22;37008;52.210;21.112;2022-09-17T04:30:59;7.10;99.90
50989;DHT22;37008;52.210;21.112;2022-09-17T04:33:25;7.00;99.90
50989;DHT22;37008;52.210;21.112;2022-09-17T04:35:50;7.00;99.90
50989;DHT22;37008;52.210;21.112;2022-09-17T04:38:16;7.00;99.90
50989;DHT22;37008;52.210;21.112;2022-09-17T04:40:45;7.00;99.90
50989;DHT22;37008;52.210;21.112;2022-09-17T04:43:13;7.00;99.90
50989;DHT22;37008;52.210;21.112;2022-09-17T04:45:39;7.00;99.90
50989;DHT22;37008;52.210;21.112;2022-09-17T04:48:07;7.00;99.90
50989;DHT22;37008;52.210;21.112;2022-09-17T04:50:38;7.00;99.90
50989;DHT22;37008;52.210;21.112;2022-09-17T04:53:04;7.10;99.90
50989;DHT22;37008;52.210;21.112;2022-09-17T04:55:29;7.10;99.90
50989;DHT22;37008;52.210;21.112;2022-09-17T04:57:55;7.10;99.90
50989;DHT22;37008;52.210;21.112;2022-09-17T05:00:22;7.20;99.90
50989;DHT22;37008;52.210;21.112;2022-09-17T05:02:50;7.20;99.90
50989;DHT22;37008;52.210;21.112;2022-09-17T05:05:19;7.20;99.90
50989;DHT22;37008;52.210;21.112;2022-09-17T05:07:48;7.30;99.90
50989;DHT22;37008;52.210;21.112;2022-09-17T05:10:20;7.40;99.90
50989;DHT22;37008;52.210;21.112;2022-09-17T05:12:51;7.40;99.90
50989;DHT22;37008;52.210;21.112;2022-09-17T05:15:20;7.50;99.90
50989;DHT22;37008;52.210;21.112;2022-09-17T05:17:46;7.60;99.90
50989;DHT22;37008;52.210;21.112;2022-09-17T05:20:13;7.70;99.90
50989;DHT22;37008;52.210;21.112;2022-09-17T05:22:50;7.70;99.90
50989;DHT22;37008;52.210;21.112;2022-09-17T05:25:20;7.80;99.90
50989;DHT22;37008;52.210;21.112;2022-09-17T05:27:51;7.90;99.90
50989;DHT22;37008;52.210;21.112;2022-09-17T05:30:17;8.00;99.90
50989;DHT22;37008;52.210;21.112;2022-09-17T05:32:43;8.10;99.90
50989;DHT22;37008;52.210;21.112;2022-09-17T05:35:09;8.20;99.90
50989;DHT22;37008;52.210;21.112;2022-09-17T05:37:35;8.30;99.90
50989;DHT22;37008;52.210;21.112;2022-09-17T05:40:05;8.40;99.90
50989;DHT22;37008;52.210;21.112;2022-09-17T05:42:32;8.50;99.90
50989;DHT22;37008;52.210;21.112;2022-09-17T05:45:00;8.60;99.90
50989;DHT22;37008;52.210;21.112;2022-09-17T05:47:26;8.70;99.90
50989;DHT22;37008;52.210;21.112;2022-09-17T05:49:51;8.90;99.90
50989;DHT22;37008;52.210;21.112;2022-09-17T05:52:17;8.90;99.90
50989;DHT22;37008;52.210;21.112;2022-09-17T05:54:45;9.10;99.90
50989;DHT22;37008;52.210;21.112;2022-09-17T05:57:11;9.10;99.90
50989;DHT22;37008;52.210;21.112;2022-09-17T05:59:36;9.20;99.90
50989;DHT22;37008;52.210;21.112;2022-09-17T06:02:02;9.30;99.90
50989;DHT22;37008;52.210;21.112;2022-09-17T06:04:29;9.40;99.90
50989;DHT22;37008;52.210;21.112;2022-09-17T06:06:55;9.50;99.90
50989;DHT22;37008;52.210;21.112;2022-09-17T06:09:21;9.50;99.90
50989;DHT22;37008;52.210;21.112;2022-09-17T06:11:46;9.60;99.90
50989;DHT22;37008;52.210;21.112;2022-09-17T06:14:13;9.70;99.90
50989;DHT22;37008;52.210;21.112;2022-09-17T06:16:39;9.80;99.90
50989;DHT22;37008;52.210;21.112;2022-09-17T06:19:05;9.90;99.90
50989;DHT22;37008;52.210;21.112;2022-09-17T06:21:31;10.10;99.90
50989;DHT22;37008;52.210;21.112;2022-09-17T06:23:57;10.20;99.90
50989;DHT22;37008;52.210;21.112;2022-09-17T06:26:22;10.20;99.90
50989;DHT22;37008;52.210;21.112;2022-09-17T06:28:48;10.30;99.90
50989;DHT22;37008;52.210;21.112;2022-09-17T06:31:14;10.40;99.90
50989;DHT22;37008;52.210;21.112;2022-09-17T06:33:42;10.40;99.90
50989;DHT22;37008;52.210;21.112;2022-09-17T06:36:09;10.50;99.90
50989;DHT22;37008;52.210;21.112;2022-09-17T06:38:36;10.60;99.90
50989;DHT22;37008;52.210;21.112;2022-09-17T06:41:03;10.70;99.90
50989;DHT22;37008;52.210;21.112;2022-09-17T06:43:29;10.80;99.90
50989;DHT22;37008;52.210;21.112;2022-09-17T06:46:00;10.90;99.90
50989;DHT22;37008;52.210;21.112;2022-09-17T06:48:28;11.00;99.90
50989;DHT22;37008;52.210;21.112;2022-09-17T06:50:54;11.00;99.90
50989;DHT22;37008;52.210;21.112;2022-09-17T06:53:20;11.20;99.90
50989;DHT22;37008;52.210;21.112;2022-09-17T06:55:46;11.30;99.90
50989;DHT22;37008;52.210;21.112;2022-09-17T06:58:12;11.40;99.00
50989;DHT22;37008;52.210;21.112;2022-09-17T07:00:38;11.60;97.70
50989;DHT22;37008;52.210;21.112;2022-09-17T07:03:03;11.70;96.50
50989;DHT22;37008;52.210;21.112;2022-09-17T07:05:29;11.70;95.20
50989;DHT22;37008;52.210;21.112;2022-09-17T07:08:00;11.80;94.80
50989;DHT22;37008;52.210;21.112;2022-09-17T07:10:27;11.80;94.60
50989;DHT22;37008;52.210;21.112;2022-09-17T07:12:53;11.90;94.30
50989;DHT22;37008;52.210;21.112;2022-09-17T07:15:19;12.10;93.60
50989;DHT22;37008;52.210;21.112;2022-09-17T07:17:47;12.20;93.20
50989;DHT22;37008;52.210;21.112;2022-09-17T07:20:13;12.40;92.40
50989;DHT22;37008;52.210;21.112;2022-09-17T07:22:39;12.60;92.20
50989;DHT22;37008;52.210;21.112;2022-09-17T07:27:14;12.80;91.40
50989;DHT22;37008;52.210;21.112;2022-09-17T07:29:40;12.90;90.90
50989;DHT22;37008;52.210;21.112;2022-09-17T07:32:06;12.80;90.50
50989;DHT22;37008;52.210;21.112;2022-09-17T07:34:32;12.70;90.40
50989;DHT22;37008;52.210;21.112;2022-09-17T07:36:58;12.70;90.40
50989;DHT22;37008;52.210;21.112;2022-09-17T07:39:23;12.60;90.30
50989;DHT22;37008;52.210;21.112;2022-09-17T07:41:49;12.60;90.20
50989;DHT22;37008;52.210;21.112;2022-09-17T07:44:16;12.50;90.20
50989;DHT22;37008;52.210;21.112;2022-09-17T07:46:41;12.40;90.10
50989;DHT22;37008;52.210;21.112;2022-09-17T07:49:07;12.40;90.20
50989;DHT22;37008;52.210;21.112;2022-09-17T07:51:32;12.30;90.50
50989;DHT22;37008;52.210;21.112;2022-09-17T07:53:58;12.30;90.80
50989;DHT22;37008;52.210;21.112;2022-09-17T07:56:25;12.30;90.90
50989;DHT22;37008;52.210;21.112;2022-09-17T07:58:51;12.30;90.90
50989;DHT22;37008;52.210;21.112;2022-09-17T08:01:17;12.30;91.00
50989;DHT22;37008;52.210;21.112;2022-09-17T08:03:52;12.40;90.90
50989;DHT22;37008;52.210;21.112;2022-09-17T08:06:20;12.40;90.60
50989;DHT22;37008;52.210;21.112;2022-09-17T08:08:46;12.40;90.60
50989;DHT22;37008;52.210;21.112;2022-09-17T08:11:14;12.40;90.60
50989;DHT22;37008;52.210;21.112;2022-09-17T08:13:41;12.40;90.80
50989;DHT22;37008;52.210;21.112;2022-09-17T08:16:10;12.40;90.90
50989;DHT22;37008;52.210;21.112;2022-09-17T08:18:38;12.40;90.90
50989;DHT22;37008;52.210;21.112;2022-09-17T08:21:05;12.40;90.90
50989;DHT22;37008;52.210;21.112;2022-09-17T08:23:33;12.40;91.00
50989;DHT22;37008;52.210;21.112;2022-09-17T08:25:59;12.40;91.00
50989;DHT22;37008;52.210;21.112;2022-09-17T08:28:27;12.40;91.00
50989;DHT22;37008;52.210;21.112;2022-09-17T08:30:53;12.40;91.00
50989;DHT22;37008;52.210;21.112;2022-09-17T08:33:19;12.30;91.10
50989;DHT22;37008;52.210;21.112;2022-09-17T08:35:54;12.30;91.20
50989;DHT22;37008;52.210;21.112;2022-09-17T08:38:27;12.20;91.20
50989;DHT22;37008;52.210;21.112;2022-09-17T08:43:26;12.10;91.50
50989;DHT22;37008;52.210;21.112;2022-09-17T08:45:56;12.00;91.60
50989;DHT22;37008;52.210;21.112;2022-09-17T08:48:25;12.10;91.90
50989;DHT22;37008;52.210;21.112;2022-09-17T08:50:52;12.00;92.10
50989;DHT22;37008;52.210;21.112;2022-09-17T08:53:33;12.00;92.30
50989;DHT22;37008;52.210;21.112;2022-09-17T08:56:15;12.10;92.50
50989;DHT22;37008;52.210;21.112;2022-09-17T08:59:03;12.10;92.70
50989;DHT22;37008;52.210;21.112;2022-09-17T09:07:38;12.70;92.00
50989;DHT22;37008;52.210;21.112;2022-09-17T09:10:12;12.70;91.80
50989;DHT22;37008;52.210;21.112;2022-09-17T09:12:39;12.90;92.00
50989;DHT22;37008;52.210;21.112;2022-09-17T09:15:18;13.00;91.50
50989;DHT22;37008;52.210;21.112;2022-09-17T09:17:49;13.20;91.00
50989;DHT22;37008;52.210;21.112;2022-09-17T09:23:12;13.50;90.30
50989;DHT22;37008;52.210;21.112;2022-09-17T09:25:56;13.70;90.10
50989;DHT22;37008;52.210;21.112;2022-09-17T09:28:52;14.00;89.60
50989;DHT22;37008;52.210;21.112;2022-09-17T09:34:22;14.00;87.00
50989;DHT22;37008;52.210;21.112;2022-09-17T09:42:17;13.60;85.50
50989;DHT22;37008;52.210;21.112;2022-09-17T09:44:56;13.40;86.20
50989;DHT22;37008;52.210;21.112;2022-09-17T09:47:58;13.40;86.60
50989;DHT22;37008;52.210;21.112;2022-09-17T09:54:16;13.80;85.70
50989;DHT22;37008;52.210;21.112;2022-09-17T09:56:54;14.00;85.00
50989;DHT22;37008;52.210;21.112;2022-09-17T09:59:21;14.20;84.60
50989;DHT22;37008;52.210;21.112;2022-09-17T10:01:47;14.20;83.30
50989;DHT22;37008;52.210;21.112;2022-09-17T10:04:22;14.30;83.00
50989;DHT22;37008;52.210;21.112;2022-09-17T10:07:02;14.20;82.80
50989;DHT22;37008;52.210;21.112;2022-09-17T10:09:30;14.10;83.30
50989;DHT22;37008;52.210;21.112;2022-09-17T10:14:36;13.70;83.20
50989;DHT22;37008;52.210;21.112;2022-09-17T10:20:13;13.40;84.80
50989;DHT22;37008;52.210;21.112;2022-09-17T10:22:40;13.30;84.50
50989;DHT22;37008;52.210;21.112;2022-09-17T10:25:29;13.20;85.60
50989;DHT22;37008;52.210;21.112;2022-09-17T10:27:57;13.20;85.20
50989;DHT22;37008;52.210;21.112;2022-09-17T10:30:23;13.20;85.40
50989;DHT22;37008;52.210;21.112;2022-09-17T10:35:38;13.10;85.70
50989;DHT22;37008;52.210;21.112;2022-09-17T10:38:04;13.10;86.10
50989;DHT22;37008;52.210;21.112;2022-09-17T10:40:31;13.00;86.30
50989;DHT22;37008;52.210;21.112;2022-09-17T10:45:44;12.80;87.70
50989;DHT22;37008;52.210;21.112;2022-09-17T10:48:19;12.60;88.10
50989;DHT22;37008;52.210;21.112;2022-09-17T10:50:50;12.50;89.20
50989;DHT22;37008;52.210;21.112;2022-09-17T10:53:17;12.30;90.30
50989;DHT22;37008;52.210;21.112;2022-09-17T10:58:31;12.00;91.80
50989;DHT22;37008;52.210;21.112;2022-09-17T11:17:43;12.90;94.00
50989;DHT22;37008;52.210;21.112;2022-09-17T11:26:02;12.80;93.10
50989;DHT22;37008;52.210;21.112;2022-09-17T11:34:28;13.20;93.50
50989;DHT22;37008;52.210;21.112;2022-09-17T11:37:22;13.40;93.50
50989;DHT22;37008;52.210;21.112;2022-09-17T11:39:59;13.60;93.20
50989;DHT22;37008;52.210;21.112;2022-09-17T11:45:09;13.80;92.50
50989;DHT22;37008;52.210;21.112;2022-09-17T11:47:41;13.70;92.00
50989;DHT22;37008;52.210;21.112;2022-09-17T11:50:30;13.60;91.70
50989;DHT22;37008;52.210;21.112;2022-09-17T11:55:57;13.60;91.60
50989;DHT22;37008;52.210;21.112;2022-09-17T11:58:39;13.70;91.70
50989;DHT22;37008;52.210;21.112;2022-09-17T12:01:15;13.80;91.50
50989;DHT22;37008;52.210;21.112;2022-09-17T12:03:52;14.00;91.20
50989;DHT22;37008;52.210;21.112;2022-09-17T12:06:51;14.10;90.70
50989;DHT22;37008;52.210;21.112;2022-09-17T12:09:20;14.40;90.40
50989;DHT22;37008;52.210;21.112;2022-09-17T12:12:09;14.60;90.00
50989;DHT22;37008;52.210;21.112;2022-09-17T12:14:54;14.90;88.50
50989;DHT22;37008;52.210;21.112;2022-09-17T12:17:25;15.10;86.50
50989;DHT22;37008;52.210;21.112;2022-09-17T12:19:56;15.30;84.70
50989;DHT22;37008;52.210;21.112;2022-09-17T12:22:25;15.40;83.40
50989;DHT22;37008;52.210;21.112;2022-09-17T12:24:52;15.40;82.00
50989;DHT22;37008;52.210;21.112;2022-09-17T12:30:12;15.20;80.90
50989;DHT22;37008;52.210;21.112;2022-09-17T12:35:55;14.70;81.50
50989;DHT22;37008;52.210;21.112;2022-09-17T12:41:18;14.40;82.10
50989;DHT22;37008;52.210;21.112;2022-09-17T12:58:01;13.90;83.00
50989;DHT22;37008;52.210;21.112;2022-09-17T13:00:45;13.90;83.00
50989;DHT22;37008;52.210;21.112;2022-09-17T13:06:05;14.00;82.90
50989;DHT22;37008;52.210;21.112;2022-09-17T13:19:36;14.20;82.80
50989;DHT22;37008;52.210;21.112;2022-09-17T13:22:17;14.10;83.00
50989;DHT22;37008;52.210;21.112;2022-09-17T13:24:44;14.10;83.90
50989;DHT22;37008;52.210;21.112;2022-09-17T13:27:23;14.00;84.10
50989;DHT22;37008;52.210;21.112;2022-09-17T13:37:59;13.80;85.70
50989;DHT22;37008;52.210;21.112;2022-09-17T13:40:35;13.70;86.20
50989;DHT22;37008;52.210;21.112;2022-09-17T13:45:33;13.70;87.70
50989;DHT22;37008;52.210;21.112;2022-09-17T13:48:24;13.70;88.30
50989;DHT22;37008;52.210;21.112;2022-09-17T13:50:50;13.60;88.90
50989;DHT22;37008;52.210;21.112;2022-09-17T13:53:20;13.60;89.60
50989;DHT22;37008;52.210;21.112;2022-09-17T14:19:03;13.30;91.80
50989;DHT22;37008;52.210;21.112;2022-09-17T14:21:31;13.30;92.20
50989;DHT22;37008;52.210;21.112;2022-09-17T14:24:00;13.20;92.60
50989;DHT22;37008;52.210;21.112;2022-09-17T14:31:41;13.40;93.00
50989;DHT22;37008;52.210;21.112;2022-09-17T14:34:12;13.50;92.90
50989;DHT22;37008;52.210;21.112;2022-09-17T14:36:41;13.50;93.10
50989;DHT22;37008;52.210;21.112;2022-09-17T14:39:19;13.60;93.10
50989;DHT22;37008;52.210;21.112;2022-09-17T14:41:46;13.70;92.80
50989;DHT22;37008;52.210;21.112;2022-09-17T14:44:16;13.70;92.40
50989;DHT22;37008;52.210;21.112;2022-09-17T14:47:01;13.80;92.10
50989;DHT22;37008;52.210;21.112;2022-09-17T14:49:32;13.80;92.20
50989;DHT22;37008;52.210;21.112;2022-09-17T14:51:58;13.80;92.10
50989;DHT22;37008;52.210;21.112;2022-09-17T14:54:30;13.90;91.90
50989;DHT22;37008;52.210;21.112;2022-09-17T14:59:52;14.00;92.10
50989;DHT22;37008;52.210;21.112;2022-09-17T15:02:38;13.90;92.10
50989;DHT22;37008;52.210;21.112;2022-09-17T15:05:28;13.90;92.20
50989;DHT22;37008;52.210;21.112;2022-09-17T15:08:06;13.90;92.20
50989;DHT22;37008;52.210;21.112;2022-09-17T15:10:47;13.80;92.40
50989;DHT22;37008;52.210;21.112;2022-09-17T15:13:16;13.80;92.60
50989;DHT22;37008;52.210;21.112;2022-09-17T15:15:54;13.80;92.80
50989;DHT22;37008;52.210;21.112;2022-09-17T15:18:23;13.80;93.10
50989;DHT22;37008;52.210;21.112;2022-09-17T15:20:55;13.90;93.20
50989;DHT22;37008;52.210;21.112;2022-09-17T15:23:26;13.90;93.30
50989;DHT22;37008;52.210;21.112;2022-09-17T15:25:54;14.00;93.40
50989;DHT22;37008;52.210;21.112;2022-09-17T15:28:35;14.00;92.90
50989;DHT22;37008;52.210;21.112;2022-09-17T15:31:04;14.00;92.90
50989;DHT22;37008;52.210;21.112;2022-09-17T15:33:31;14.20;92.60
50989;DHT22;37008;52.210;21.112;2022-09-17T15:36:23;14.20;92.20
50989;DHT22;37008;52.210;21.112;2022-09-17T15:38:51;14.10;91.60
50989;DHT22;37008;52.210;21.112;2022-09-17T15:41:32;14.10;91.60
50989;DHT22;37008;52.210;21.112;2022-09-17T15:44:16;14.00;91.70
50989;DHT22;37008;52.210;21.112;2022-09-17T15:46:44;14.00;91.50
50989;DHT22;37008;52.210;21.112;2022-09-17T15:49:31;13.90;91.20
50989;DHT22;37008;52.210;21.112;2022-09-17T15:52:28;13.90;91.00
50989;DHT22;37008;52.210;21.112;2022-09-17T15:54:56;13.80;90.80
50989;DHT22;37008;52.210;21.112;2022-09-17T15:57:22;13.60;90.80
50989;DHT22;37008;52.210;21.112;2022-09-17T15:59:49;13.60;91.00
50989;DHT22;37008;52.210;21.112;2022-09-17T16:02:29;13.50;91.10
50989;DHT22;37008;52.210;21.112;2022-09-17T16:07:41;13.30;91.70
50989;DHT22;37008;52.210;21.112;2022-09-17T16:10:08;13.20;91.90
50989;DHT22;37008;52.210;21.112;2022-09-17T16:12:34;13.10;92.20
50989;DHT22;37008;52.210;21.112;2022-09-17T16:15:00;13.10;92.30
50989;DHT22;37008;52.210;21.112;2022-09-17T16:20:13;13.00;93.00
50989;DHT22;37008;52.210;21.112;2022-09-17T16:22:40;13.00;93.00
50989;DHT22;37008;52.210;21.112;2022-09-17T16:25:06;12.90;93.20
50989;DHT22;37008;52.210;21.112;2022-09-17T16:27:48;12.80;93.70
50989;DHT22;37008;52.210;21.112;2022-09-17T16:30:20;12.70;94.20
50989;DHT22;37008;52.210;21.112;2022-09-17T16:32:46;12.60;94.50
50989;DHT22;37008;52.210;21.112;2022-09-17T16:35:17;12.50;95.00
50989;DHT22;37008;52.210;21.112;2022-09-17T16:37:46;12.30;95.50
50989;DHT22;37008;52.210;21.112;2022-09-17T16:40:12;12.20;95.70
50989;DHT22;37008;52.210;21.112;2022-09-17T16:42:38;12.10;96.00
50989;DHT22;37008;52.210;21.112;2022-09-17T16:45:05;12.00;96.30
50989;DHT22;37008;52.210;21.112;2022-09-17T16:47:37;11.90;96.70
50989;DHT22;37008;52.210;21.112;2022-09-17T16:50:06;11.70;97.30
50989;DHT22;37008;52.210;21.112;2022-09-17T16:52:33;11.70;97.70
50989;DHT22;37008;52.210;21.112;2022-09-17T16:54:58;11.50;98.00
50989;DHT22;37008;52.210;21.112;2022-09-17T16:57:24;11.50;98.40
50989;DHT22;37008;52.210;21.112;2022-09-17T16:59:50;11.50;98.90
50989;DHT22;37008;52.210;21.112;2022-09-17T17:02:16;11.40;99.20
50989;DHT22;37008;52.210;21.112;2022-09-17T17:04:41;11.40;99.50
50989;DHT22;37008;52.210;21.112;2022-09-17T17:07:07;11.30;99.90
50989;DHT22;37008;52.210;21.112;2022-09-17T17:09:33;11.20;99.90
50989;DHT22;37008;52.210;21.112;2022-09-17T17:11:58;11.10;99.90
50989;DHT22;37008;52.210;21.112;2022-09-17T17:14:24;11.00;99.90
50989;DHT22;37008;52.210;21.112;2022-09-17T17:16:49;10.90;99.90
50989;DHT22;37008;52.210;21.112;2022-09-17T17:19:16;10.80;99.90
50989;DHT22;37008;52.210;21.112;2022-09-17T17:21:42;10.70;99.90
50989;DHT22;37008;52.210;21.112;2022-09-17T17:24:08;10.60;99.90
50989;DHT22;37008;52.210;21.112;2022-09-17T17:26:34;10.60;99.90
50989;DHT22;37008;52.210;21.112;2022-09-17T17:28:59;10.50;99.90
50989;DHT22;37008;52.210;21.112;2022-09-17T17:31:27;10.40;99.90
50989;DHT22;37008;52.210;21.112;2022-09-17T17:33:52;10.20;99.90
50989;DHT22;37008;52.210;21.112;2022-09-17T17:36:18;10.10;99.90
50989;DHT22;37008;52.210;21.112;2022-09-17T17:38:43;10.00;99.90
50989;DHT22;37008;52.210;21.112;2022-09-17T17:41:11;10.00;99.90
50989;DHT22;37008;52.210;21.112;2022-09-17T17:43:37;9.90;99.90
50989;DHT22;37008;52.210;21.112;2022-09-17T17:46:08;9.80;99.90
50989;DHT22;37008;52.210;21.112;2022-09-17T17:48:34;9.70;99.90
50989;DHT22;37008;52.210;21.112;2022-09-17T17:51:02;9.60;99.90
50989;DHT22;37008;52.210;21.112;2022-09-17T17:53:28;9.50;99.90
50989;DHT22;37008;52.210;21.112;2022-09-17T17:55:55;9.40;99.90
50989;DHT22;37008;52.210;21.112;2022-09-17T17:58:22;9.30;99.90
50989;DHT22;37008;52.210;21.112;2022-09-17T18:00:47;9.30;99.90
50989;DHT22;37008;52.210;21.112;2022-09-17T18:03:13;9.20;99.90
50989;DHT22;37008;52.210;21.112;2022-09-17T18:05:39;9.10;99.90
50989;DHT22;37008;52.210;21.112;2022-09-17T18:08:05;9.10;99.90
50989;DHT22;37008;52.210;21.112;2022-09-17T18:10:30;9.00;99.90
50989;DHT22;37008;52.210;21.112;2022-09-17T18:12:56;9.00;99.90
50989;DHT22;37008;52.210;21.112;2022-09-17T18:15:21;9.00;99.90
50989;DHT22;37008;52.210;21.112;2022-09-17T18:17:47;9.00;99.90
50989;DHT22;37008;52.210;21.112;2022-09-17T18:20:14;8.90;99.90
50989;DHT22;37008;52.210;21.112;2022-09-17T18:22:40;8.90;99.90
50989;DHT22;37008;52.210;21.112;2022-09-17T18:25:06;8.80;99.90
50989;DHT22;37008;52.210;21.112;2022-09-17T18:27:32;8.80;99.90
50989;DHT22;37008;52.210;21.112;2022-09-17T18:29:57;8.70;99.90
50989;DHT22;37008;52.210;21.112;2022-09-17T18:32:23;8.70;99.90
50989;DHT22;37008;52.210;21.112;2022-09-17T18:34:49;8.60;99.90
50989;DHT22;37008;52.210;21.112;2022-09-17T18:37:14;8.50;99.90
50989;DHT22;37008;52.210;21.112;2022-09-17T18:39:40;8.50;99.90
50989;DHT22;37008;52.210;21.112;2022-09-17T18:42:06;8.50;99.90
50989;DHT22;37008;52.210;21.112;2022-09-17T18:44:32;8.40;99.90
50989;DHT22;37008;52.210;21.112;2022-09-17T18:46:57;8.40;99.90
50989;DHT22;37008;52.210;21.112;2022-09-17T18:49:23;8.30;99.90
50989;DHT22;37008;52.210;21.112;2022-09-17T18:51:49;8.30;99.90
50989;DHT22;37008;52.210;21.112;2022-09-17T18:54:15;8.20;99.90
50989;DHT22;37008;52.210;21.112;2022-09-17T18:56:40;8.20;99.90
50989;DHT22;37008;52.210;21.112;2022-09-17T18:59:06;8.30;99.90
50989;DHT22;37008;52.210;21.112;2022-09-17T19:01:32;8.20;99.90
50989;DHT22;37008;52.210;21.112;2022-09-17T19:03:58;8.20;99.90